Time;durP1;ratioP1;P1;durP2;ratioP2;P2;SDS_P1;SDS_P2;PMS_P1;PMS_P2;Temp;Humidity;BMP_temperature;BMP_pressure;BME280_temperature;BME280_humidity;BME280_pressure;Samples;Min_cycle;Max_cycle;Signal;HPM_P1;HPM_P2
2022/03/18 00:00:33;;;;;;;37.97;18.80;;;3.10;72.60;;;;;;5073802;28;20381;-66
2022/03/18 00:03:24;;;;;;;40.23;20.40;;;2.90;73.10;;;;;;5069710;28;20242;-65
2022/03/18 00:06:16;;;;;;;40.37;18.47;;;3.10;73.10;;;;;;5075995;28;20226;-65
2022/03/18 00:09:06;;;;;;;36.30;19.23;;;3.10;72.70;;;;;;5078547;28;20687;-65
2022/03/18 00:11:55;;;;;;;36.10;18.33;;;3.10;72.50;;;;;;5070992;28;20223;-65
2022/03/18 00:14:44;;;;;;;34.10;18.97;;;3.00;72.90;;;;;;5076009;28;20285;-66
2022/03/18 00:17:32;;;;;;;33.03;17.73;;;2.90;73.20;;;;;;5077363;28;20340;-66
2022/03/18 00:20:23;;;;;;;37.90;20.10;;;2.90;73.40;;;;;;5051662;28;20341;-67
2022/03/18 00:23:14;;;;;;;33.33;19.13;;;2.90;73.70;;;;;;5079522;28;20216;-66
2022/03/18 00:26:03;;;;;;;35.37;18.63;;;2.90;73.80;;;;;;5075800;28;20266;-66
2022/03/18 00:28:51;;;;;;;43.07;18.90;;;3.00;73.40;;;;;;5074464;28;20984;-66
2022/03/18 00:31:40;;;;;;;32.80;17.87;;;2.90;73.80;;;;;;5065498;28;20227;-67
2022/03/18 00:34:28;;;;;;;31.23;17.70;;;3.00;74.00;;;;;;5063004;28;20275;-67
2022/03/18 00:37:19;;;;;;;35.50;18.87;;;3.10;73.60;;;;;;5060786;28;20777;-66
2022/03/18 00:40:09;;;;;;;34.70;18.93;;;3.10;73.30;;;;;;5062943;28;21964;-67
2022/03/18 00:43:00;;;;;;;40.37;21.80;;;3.10;73.20;;;;;;5077061;28;20311;-66
2022/03/18 00:45:50;;;;;;;30.93;17.67;;;3.00;73.70;;;;;;5074860;28;20704;-66
2022/03/18 00:52:03;;;;;;;35.07;18.20;;;3.00;73.70;;;;;;5077587;28;20226;-66
2022/03/18 00:54:54;;;;;;;33.17;17.87;;;3.00;73.70;;;;;;5079883;28;20223;-66
2022/03/18 00:57:42;;;;;;;33.23;17.70;;;3.00;73.90;;;;;;5075575;28;20220;-66
2022/03/18 01:00:31;;;;;;;32.03;17.70;;;2.90;73.90;;;;;;5060200;28;20224;-66
2022/03/18 01:03:19;;;;;;;32.63;17.10;;;3.00;73.90;;;;;;5060990;28;20702;-65
2022/03/18 01:06:08;;;;;;;35.10;18.83;;;2.90;73.90;;;;;;5063400;28;20537;-65
2022/03/18 01:08:57;;;;;;;34.03;18.30;;;2.90;74.00;;;;;;5064608;28;20246;-66
2022/03/18 01:11:47;;;;;;;33.03;18.30;;;2.90;74.00;;;;;;5065083;28;20232;-66
2022/03/18 01:14:36;;;;;;;31.77;17.57;;;2.90;74.10;;;;;;5076922;28;20216;-65
2022/03/18 01:17:25;;;;;;;34.90;17.53;;;2.90;74.20;;;;;;5081488;28;20220;-65
2022/03/18 01:20:14;;;;;;;35.77;19.10;;;2.90;74.50;;;;;;5075544;28;20262;-65
2022/03/18 01:23:03;;;;;;;33.07;17.70;;;2.80;74.70;;;;;;5065118;28;20228;-65
2022/03/18 01:25:54;;;;;;;35.80;18.10;;;2.80;74.70;;;;;;5078655;28;20724;-66
2022/03/18 01:28:44;;;;;;;32.57;17.87;;;2.80;74.80;;;;;;5050093;28;20215;-66
2022/03/18 01:31:32;;;;;;;28.77;16.80;;;2.80;75.10;;;;;;5065703;28;20235;-66
2022/03/18 01:34:21;;;;;;;33.03;17.13;;;2.70;75.40;;;;;;5078246;28;20228;-65
2022/03/18 01:37:10;;;;;;;29.67;17.73;;;2.70;75.60;;;;;;5080893;28;20234;-66
2022/03/18 01:39:59;;;;;;;31.47;17.13;;;2.70;75.70;;;;;;5075551;28;20216;-66
2022/03/18 01:42:47;;;;;;;33.00;17.07;;;2.70;75.60;;;;;;5049046;28;20255;-64
2022/03/18 01:45:38;;;;;;;32.57;17.33;;;2.70;76.00;;;;;;5079309;28;20220;-64
2022/03/18 01:48:27;;;;;;;36.27;18.70;;;2.50;76.90;;;;;;5064106;28;20215;-64
2022/03/18 01:51:16;;;;;;;31.93;17.37;;;2.50;77.00;;;;;;5070149;28;20220;-64
2022/03/18 01:57:11;;;;;;;30.53;17.03;;;2.30;78.10;;;;;;5079248;28;20239;-63
2022/03/18 02:00:00;;;;;;;30.50;17.40;;;2.40;78.50;;;;;;5080416;28;20224;-64
2022/03/18 02:03:00;;;;;;;37.53;17.93;;;2.50;78.30;;;;;;5080906;28;20238;-63
2022/03/18 02:05:49;;;;;;;30.10;16.80;;;2.40;78.50;;;;;;5052859;28;20629;-64
2022/03/18 02:08:39;;;;;;;29.30;16.63;;;2.40;79.20;;;;;;5064252;28;20772;-64
2022/03/18 02:11:28;;;;;;;36.17;18.77;;;2.30;79.40;;;;;;5074037;28;20224;-64
2022/03/18 02:14:30;;;;;;;33.30;18.67;;;2.20;80.40;;;;;;5074135;28;20242;-64
2022/03/18 02:17:19;;;;;;;37.20;19.33;;;2.20;80.90;;;;;;5058460;28;20218;-65
2022/03/18 02:20:14;;;;;;;35.57;18.77;;;2.10;82.00;;;;;;5077882;28;20681;-65
2022/03/18 02:23:05;;;;;;;36.53;19.47;;;1.90;84.00;;;;;;5066385;28;20227;-65
2022/03/18 02:25:54;;;;;;;36.37;19.17;;;1.90;84.90;;;;;;5081446;28;20227;-65
2022/03/18 02:28:42;;;;;;;38.00;19.63;;;1.80;86.10;;;;;;5082490;28;20246;-65
2022/03/18 02:31:32;;;;;;;35.97;19.97;;;1.80;86.70;;;;;;5075873;28;20242;-65
2022/03/18 02:34:22;;;;;;;36.20;20.20;;;1.90;86.00;;;;;;5081799;28;20237;-65
2022/03/18 02:37:11;;;;;;;34.13;19.33;;;2.00;85.60;;;;;;5069166;28;20222;-65
2022/03/18 02:40:02;;;;;;;33.47;19.17;;;1.90;86.60;;;;;;5078018;28;20211;-65
2022/03/18 02:42:51;;;;;;;36.50;19.57;;;1.90;87.40;;;;;;5075891;28;20237;-65
2022/03/18 02:45:39;;;;;;;34.53;19.33;;;1.90;87.50;;;;;;5073494;28;20223;-65
2022/03/18 02:48:28;;;;;;;34.03;19.17;;;1.90;87.60;;;;;;5061587;28;20264;-64
2022/03/18 02:51:16;;;;;;;36.57;19.43;;;1.80;88.80;;;;;;5080368;28;20223;-64
2022/03/18 02:54:06;;;;;;;33.20;17.63;;;1.80;89.80;;;;;;5062583;28;20740;-65
2022/03/18 02:56:56;;;;;;;36.23;18.63;;;1.70;90.40;;;;;;5078472;28;20231;-65
2022/03/18 02:59:45;;;;;;;35.50;19.23;;;1.70;90.60;;;;;;5081630;28;20219;-67
2022/03/18 03:02:34;;;;;;;35.77;19.20;;;1.60;91.10;;;;;;5080461;28;20653;-65
2022/03/18 03:08:29;;;;;;;34.90;19.40;;;1.50;93.40;;;;;;5063410;28;20219;-66
2022/03/18 03:11:19;;;;;;;34.33;18.60;;;1.50;93.90;;;;;;5078382;28;20227;-67
2022/03/18 03:14:09;;;;;;;35.43;18.87;;;1.40;95.80;;;;;;5080617;28;20325;-65
2022/03/18 03:16:57;;;;;;;34.63;19.13;;;1.40;95.90;;;;;;5081000;28;20223;-66
2022/03/18 03:19:46;;;;;;;33.33;18.57;;;1.40;96.20;;;;;;5058783;28;20235;-66
2022/03/18 03:22:35;;;;;;;36.03;18.43;;;1.30;97.30;;;;;;5061334;28;20310;-65
2022/03/18 03:25:23;;;;;;;34.03;18.60;;;1.20;97.80;;;;;;5077225;28;20231;-66
2022/03/18 03:28:12;;;;;;;32.20;18.50;;;1.30;97.30;;;;;;5079212;28;20227;-66
2022/03/18 03:31:03;;;;;;;32.33;17.80;;;1.40;95.30;;;;;;5080929;28;20223;-65
2022/03/18 03:33:52;;;;;;;31.60;18.47;;;1.50;94.70;;;;;;5068979;28;20777;-66
2022/03/18 03:36:41;;;;;;;36.47;18.57;;;1.40;94.70;;;;;;5065897;28;20238;-66
2022/03/18 03:39:29;;;;;;;30.97;17.07;;;1.50;94.50;;;;;;5080781;28;20235;-64
2022/03/18 03:42:18;;;;;;;34.57;17.40;;;1.40;94.10;;;;;;5080775;28;20231;-65
2022/03/18 03:45:08;;;;;;;31.37;17.77;;;1.40;94.90;;;;;;5077889;28;20235;-64
2022/03/18 03:47:59;;;;;;;31.77;17.40;;;1.40;95.50;;;;;;5062984;28;20607;-65
2022/03/18 03:50:48;;;;;;;31.43;18.03;;;1.20;97.70;;;;;;5076674;28;20303;-65
2022/03/18 03:53:36;;;;;;;32.63;17.13;;;1.30;97.50;;;;;;5079675;28;20313;-65
2022/03/18 03:56:28;;;;;;;29.83;17.03;;;1.20;97.60;;;;;;5076234;28;20237;-65
2022/03/18 03:59:17;;;;;;;30.10;16.30;;;1.20;97.90;;;;;;5056035;28;20276;-66
2022/03/18 04:02:06;;;;;;;33.73;17.03;;;1.10;98.60;;;;;;5077249;28;20219;-65
2022/03/18 04:04:57;;;;;;;31.60;17.20;;;1.10;99.90;;;;;;5079366;28;20733;-65
2022/03/18 04:07:45;;;;;;;30.30;17.33;;;1.10;99.90;;;;;;5066475;28;20224;-65
2022/03/18 04:10:35;;;;;;;27.70;15.93;;;1.00;99.90;;;;;;5062645;28;20218;-66
2022/03/18 04:13:23;;;;;;;30.10;16.87;;;1.00;99.90;;;;;;5063046;28;20227;-65
2022/03/18 04:16:12;;;;;;;30.53;16.30;;;1.10;99.90;;;;;;5061551;28;20282;-67
2022/03/18 04:19:03;;;;;;;33.60;17.87;;;1.20;99.90;;;;;;5076940;28;20222;-65
2022/03/18 04:21:53;;;;;;;31.93;16.90;;;1.20;99.90;;;;;;5060398;28;20227;-67
2022/03/18 04:24:41;;;;;;;30.03;17.73;;;1.20;99.90;;;;;;5066397;28;20448;-65
2022/03/18 04:27:30;;;;;;;33.20;18.13;;;1.00;99.90;;;;;;5054914;28;20232;-66
2022/03/18 04:30:19;;;;;;;32.50;16.73;;;1.10;99.90;;;;;;5044154;28;20230;-65
2022/03/18 04:33:07;;;;;;;32.27;17.33;;;1.00;99.90;;;;;;5038102;28;20262;-64
2022/03/18 04:35:56;;;;;;;31.67;17.23;;;1.00;99.90;;;;;;5060338;28;20238;-64
2022/03/18 04:38:46;;;;;;;28.50;17.13;;;1.10;99.90;;;;;;5040384;28;20220;-65
2022/03/18 04:41:35;;;;;;;30.23;17.00;;;1.00;99.90;;;;;;5053775;28;20243;-65
2022/03/18 04:44:23;;;;;;;32.80;17.50;;;1.10;99.90;;;;;;5060555;28;20248;-65
2022/03/18 04:47:12;;;;;;;33.83;17.33;;;0.90;99.90;;;;;;5060317;28;20237;-65
2022/03/18 04:50:01;;;;;;;31.47;17.73;;;0.80;99.90;;;;;;5072435;28;20219;-66
2022/03/18 04:52:50;;;;;;;31.73;17.30;;;1.00;99.90;;;;;;5061162;28;20740;-67
2022/03/18 04:55:40;;;;;;;34.37;16.87;;;1.10;99.90;;;;;;5063576;28;20263;-67
2022/03/18 04:58:32;;;;;;;33.90;18.50;;;1.20;99.90;;;;;;5063553;28;20281;-68
2022/03/18 05:01:21;;;;;;;35.30;18.63;;;1.20;99.90;;;;;;5077074;28;20223;-67
2022/03/18 05:04:10;;;;;;;37.00;18.50;;;1.10;99.90;;;;;;5061969;28;20636;-68
2022/03/18 05:06:59;;;;;;;30.63;18.43;;;1.10;99.90;;;;;;5064900;28;20732;-67
2022/03/18 05:09:52;;;;;;;35.07;18.60;;;1.20;99.90;;;;;;5077963;28;20223;-67
2022/03/18 05:12:42;;;;;;;36.47;19.07;;;1.20;99.90;;;;;;5078581;28;20238;-66
2022/03/18 05:15:35;;;;;;;33.20;17.97;;;1.10;99.90;;;;;;5033528;28;20263;-65
2022/03/18 05:18:24;;;;;;;34.07;17.67;;;1.00;99.90;;;;;;5054791;28;20220;-65
2022/03/18 05:21:13;;;;;;;34.90;18.40;;;1.00;99.90;;;;;;5063633;28;20211;-65
2022/03/18 05:24:03;;;;;;;37.93;17.93;;;1.10;99.90;;;;;;5067210;28;20236;-64
2022/03/18 05:26:51;;;;;;;34.90;18.60;;;1.20;99.90;;;;;;5067347;28;20373;-65
2022/03/18 05:29:42;;;;;;;35.83;18.33;;;1.00;99.90;;;;;;5051322;28;20676;-65
2022/03/18 05:32:30;;;;;;;36.50;17.87;;;1.10;99.90;;;;;;5077301;28;20235;-64
2022/03/18 05:35:21;;;;;;;31.00;17.63;;;0.90;99.90;;;;;;5057981;28;20230;-65
2022/03/18 05:38:09;;;;;;;35.80;18.50;;;0.80;99.90;;;;;;5046844;28;20248;-66
2022/03/18 05:40:58;;;;;;;29.80;18.10;;;0.90;99.90;;;;;;5059586;28;20224;-66
2022/03/18 05:43:47;;;;;;;35.97;18.20;;;1.10;99.90;;;;;;5045830;28;20268;-67
2022/03/18 05:46:37;;;;;;;34.13;18.47;;;1.30;99.90;;;;;;5044471;28;20600;-67
2022/03/18 05:49:26;;;;;;;35.83;18.73;;;1.30;99.90;;;;;;5043882;28;20294;-66
2022/03/18 05:52:14;;;;;;;34.50;17.70;;;1.30;99.90;;;;;;5076928;28;20227;-67
2022/03/18 05:55:03;;;;;;;37.30;18.50;;;1.20;99.90;;;;;;5071184;28;21164;-66
2022/03/18 05:57:53;;;;;;;35.70;18.93;;;1.40;99.90;;;;;;5063815;28;20216;-65
2022/03/18 06:00:42;;;;;;;36.10;18.43;;;1.50;99.90;;;;;;5068341;28;20216;-66
2022/03/18 06:03:36;;;;;;;35.10;18.20;;;1.50;99.90;;;;;;5086027;28;20228;-67
2022/03/18 06:06:25;;;;;;;33.63;17.33;;;1.40;99.90;;;;;;5085537;28;20223;-68
2022/03/18 06:12:20;;;;;;;35.07;17.67;;;1.60;98.70;;;;;;5074521;28;20215;-68
2022/03/18 06:15:09;;;;;;;34.07;17.57;;;1.70;96.90;;;;;;5079958;28;20231;-67
2022/03/18 06:17:57;;;;;;;38.20;18.03;;;1.60;98.10;;;;;;5080946;28;20220;-68
2022/03/18 06:20:52;;;;;;;29.90;16.57;;;1.70;97.60;;;;;;5061282;28;20243;-68
2022/03/18 06:23:41;;;;;;;32.90;18.17;;;1.90;95.90;;;;;;5078121;28;20231;-68
2022/03/18 06:26:31;;;;;;;37.70;17.13;;;1.90;96.10;;;;;;5078551;28;20220;-68
2022/03/18 06:29:21;;;;;;;31.73;17.03;;;1.90;94.10;;;;;;5077405;28;20330;-69
2022/03/18 06:32:11;;;;;;;32.27;16.13;;;2.00;93.20;;;;;;5081246;28;20284;-68
2022/03/18 06:35:00;;;;;;;31.97;17.60;;;1.90;92.70;;;;;;5059829;28;20276;-68
2022/03/18 06:37:50;;;;;;;32.53;15.97;;;1.90;93.50;;;;;;5078296;28;20220;-70
2022/03/18 06:40:38;;;;;;;30.00;15.97;;;2.00;92.70;;;;;;5082132;28;20220;-69
2022/03/18 06:43:27;;;;;;;28.60;15.23;;;2.10;91.40;;;;;;5063895;28;20252;-69
2022/03/18 06:46:16;;;;;;;30.20;14.87;;;2.10;91.20;;;;;;5066088;28;20222;-67
2022/03/18 06:49:06;;;;;;;35.73;15.67;;;2.20;90.20;;;;;;5066594;28;20227;-68
2022/03/18 06:51:55;;;;;;;76.00;17.37;;;2.20;90.40;;;;;;5081016;28;20220;-69
2022/03/18 06:54:45;;;;;;;28.53;15.17;;;2.40;90.50;;;;;;5081303;28;20294;-68
2022/03/18 06:57:34;;;;;;;26.67;15.27;;;2.50;90.00;;;;;;5075396;28;20643;-69
2022/03/18 07:00:22;;;;;;;28.43;15.00;;;2.60;88.40;;;;;;5079528;28;20586;-67
2022/03/18 07:03:13;;;;;;;36.70;15.03;;;2.70;86.00;;;;;;5071252;28;20822;-67
2022/03/18 07:06:06;;;;;;;31.20;15.00;;;2.70;84.90;;;;;;5056833;28;20223;-66
2022/03/18 07:08:55;;;;;;;26.47;14.90;;;2.80;83.50;;;;;;5078976;28;20223;-66
2022/03/18 07:11:45;;;;;;;28.47;15.00;;;2.90;82.50;;;;;;5080376;28;20259;-66
2022/03/18 07:14:34;;;;;;;28.13;15.00;;;3.00;81.80;;;;;;5063906;28;20547;-65
2022/03/18 07:20:30;;;;;;;32.03;14.13;;;3.10;81.10;;;;;;5058896;28;20706;-68
2022/03/18 07:23:21;;;;;;;26.17;13.17;;;3.20;79.50;;;;;;5066599;28;20293;-68
2022/03/18 07:26:10;;;;;;;33.90;14.77;;;3.20;79.90;;;;;;5065727;28;20262;-68
2022/03/18 07:29:04;;;;;;;25.37;14.00;;;3.40;79.00;;;;;;5080263;28;20289;-68
2022/03/18 07:31:55;;;;;;;24.17;12.87;;;3.50;78.10;;;;;;5067122;28;20231;-70
2022/03/18 07:34:43;;;;;;;21.80;12.07;;;3.60;76.70;;;;;;5081486;28;20300;-69
2022/03/18 07:37:32;;;;;;;23.27;11.73;;;3.80;75.50;;;;;;5079366;28;20232;-72
2022/03/18 07:40:21;;;;;;;19.13;10.67;;;3.90;73.60;;;;;;5079995;28;20225;-68
2022/03/18 07:43:10;;;;;;;18.40;9.80;;;3.90;71.80;;;;;;5057614;28;20229;-68
2022/03/18 07:46:01;;;;;;;19.43;10.80;;;4.00;70.70;;;;;;5062502;28;20225;-66
2022/03/18 07:48:49;;;;;;;21.57;11.70;;;4.10;71.40;;;;;;5060945;28;20210;-68
2022/03/18 07:51:38;;;;;;;20.07;11.43;;;4.10;71.50;;;;;;5063442;28;20223;-66
2022/03/18 07:54:26;;;;;;;18.33;10.63;;;4.30;71.70;;;;;;5065434;28;20519;-65
2022/03/18 07:57:15;;;;;;;17.73;10.27;;;4.40;70.60;;;;;;5079042;28;20308;-65
2022/03/18 08:00:04;;;;;;;16.17;9.03;;;4.60;69.20;;;;;;5080155;28;20535;-66
2022/03/18 08:02:55;;;;;;;16.03;9.00;;;4.90;68.70;;;;;;5078413;28;20222;-70
2022/03/18 08:05:44;;;;;;;20.93;10.77;;;6.70;66.30;;;;;;5081709;28;20224;-69
2022/03/18 08:08:33;;;;;;;16.70;9.37;;;10.60;59.00;;;;;;5081765;28;20252;-69
2022/03/18 08:11:22;;;;;;;18.03;10.43;;;13.10;54.10;;;;;;5064207;28;20229;-68
2022/03/18 08:14:15;;;;;;;20.40;9.47;;;14.00;50.10;;;;;;5063839;28;20223;-68
2022/03/18 08:17:03;;;;;;;15.93;9.60;;;14.50;48.40;;;;;;5081242;28;20236;-68
2022/03/18 08:19:54;;;;;;;15.82;9.00;;;15.60;46.80;;;;;;5069744;28;20216;-68
2022/03/18 08:22:43;;;;;;;16.95;9.35;;;16.60;45.40;;;;;;5083772;28;20232;-68
2022/03/18 08:25:32;;;;;;;15.02;9.07;;;16.20;44.10;;;;;;5069896;28;20231;-68
2022/03/18 08:28:21;;;;;;;13.02;8.38;;;16.50;43.10;;;;;;5078683;28;20619;-68
2022/03/18 08:31:09;;;;;;;14.32;8.95;;;15.80;43.70;;;;;;5062287;28;20234;-68
2022/03/18 08:33:58;;;;;;;12.88;7.63;;;17.20;43.50;;;;;;5063404;28;20281;-69
2022/03/18 08:36:48;;;;;;;11.20;7.32;;;16.20;41.70;;;;;;5077911;28;20226;-69
2022/03/18 08:39:38;;;;;;;11.70;7.88;;;17.20;41.10;;;;;;5060598;28;20304;-68
2022/03/18 08:42:27;;;;;;;10.40;7.38;;;17.80;39.80;;;;;;5059262;28;20239;-69
2022/03/18 08:45:16;;;;;;;11.18;7.57;;;18.30;39.50;;;;;;5068193;28;20227;-70
2022/03/18 08:48:06;;;;;;;12.55;8.18;;;18.50;38.60;;;;;;5073231;28;20911;-69
2022/03/18 08:50:55;;;;;;;13.30;8.75;;;19.10;38.30;;;;;;5059444;28;20265;-70
2022/03/18 08:53:46;;;;;;;15.10;8.48;;;19.00;37.90;;;;;;5078400;28;20242;-70
2022/03/18 08:56:35;;;;;;;12.90;8.43;;;19.70;37.50;;;;;;5056568;28;20224;-68
2022/03/18 08:59:24;;;;;;;13.90;8.73;;;19.40;36.70;;;;;;5043527;28;20959;-69
2022/03/18 09:02:13;;;;;;;13.10;8.23;;;19.20;37.60;;;;;;5057538;28;20224;-68
2022/03/18 09:05:03;;;;;;;13.07;9.05;;;19.30;37.40;;;;;;5057096;28;20558;-68
2022/03/18 09:07:52;;;;;;;15.75;8.95;;;17.90;38.60;;;;;;5045786;28;20519;-68
2022/03/18 09:10:43;;;;;;;15.07;8.77;;;19.20;38.10;;;;;;5041861;28;20598;-68
2022/03/18 09:13:33;;;;;;;12.32;8.82;;;19.30;37.30;;;;;;5057158;28;20595;-68
2022/03/18 09:16:21;;;;;;;11.88;8.65;;;16.30;38.50;;;;;;5059363;28;21014;-68
2022/03/18 09:19:23;;;;;;;13.13;9.10;;;14.50;40.40;;;;;;5057427;28;20699;-68
2022/03/18 09:22:16;;;;;;;11.10;8.68;;;11.40;44.30;;;;;;5056505;28;20330;-69
2022/03/18 09:25:05;;;;;;;12.10;7.75;;;10.70;47.00;;;;;;5041959;28;20621;-68
2022/03/18 09:27:55;;;;;;;11.68;8.45;;;9.70;48.30;;;;;;5061154;28;20232;-68
2022/03/18 09:31:03;;;;;;;11.32;7.45;;;9.60;49.40;;;;;;5060486;28;20255;-68
2022/03/18 09:33:52;;;;;;;11.75;7.72;;;8.80;49.90;;;;;;5053880;28;20226;-68
2022/03/18 09:36:41;;;;;;;12.63;7.53;;;8.80;51.00;;;;;;5063934;28;20307;-68
2022/03/18 09:39:33;;;;;;;12.03;8.17;;;8.70;51.40;;;;;;5078132;28;20638;-69
2022/03/18 09:42:24;;;;;;;14.03;8.30;;;8.80;51.70;;;;;;5057134;28;20309;-68
2022/03/18 09:45:14;;;;;;;13.00;7.47;;;8.80;51.80;;;;;;5074071;28;20215;-67
2022/03/18 09:48:10;;;;;;;12.23;7.43;;;8.70;51.60;;;;;;5060156;28;20225;-68
2022/03/18 09:50:59;;;;;;;12.20;8.07;;;8.00;51.80;;;;;;5077003;28;20903;-67
2022/03/18 09:53:48;;;;;;;12.50;7.03;;;7.90;52.80;;;;;;5073808;28;20264;-68
2022/03/18 09:56:39;;;;;;;15.90;8.23;;;7.80;53.00;;;;;;5068272;28;20599;-70
2022/03/18 09:59:30;;;;;;;12.70;7.27;;;7.80;53.40;;;;;;5076054;28;20219;-68
2022/03/18 10:02:28;;;;;;;14.70;7.73;;;8.00;53.30;;;;;;5045983;28;20647;-68
2022/03/18 10:05:17;;;;;;;14.97;7.70;;;7.70;52.90;;;;;;5050201;28;20274;-69
2022/03/18 10:08:06;;;;;;;13.73;7.20;;;7.70;53.40;;;;;;5061736;28;20227;-70
2022/03/18 10:10:54;;;;;;;14.90;7.80;;;7.70;53.50;;;;;;5082089;28;20227;-69
2022/03/18 10:13:54;;;;;;;12.73;7.90;;;7.70;53.40;;;;;;5079566;28;20212;-69
2022/03/18 10:16:44;;;;;;;15.13;7.30;;;7.30;53.10;;;;;;5066100;28;20261;-68
2022/03/18 10:19:46;;;;;;;10.93;6.83;;;7.40;53.60;;;;;;5082134;28;20548;-67
2022/03/18 10:22:36;;;;;;;11.63;7.63;;;7.40;53.30;;;;;;5061994;28;20223;-68
2022/03/18 10:25:36;;;;;;;11.57;7.10;;;7.30;53.40;;;;;;5073510;28;20235;-68
2022/03/18 10:28:43;;;;;;;11.80;7.30;;;7.60;53.30;;;;;;5062921;28;20299;-68
2022/03/18 10:31:32;;;;;;;13.77;6.53;;;7.70;52.70;;;;;;5066538;28;20784;-69
2022/03/18 10:37:43;;;;;;;12.60;7.43;;;7.50;52.50;;;;;;5082353;28;20242;-68
2022/03/18 10:40:36;;;;;;;10.57;6.90;;;7.50;52.80;;;;;;5067410;28;21166;-69
2022/03/18 10:43:25;;;;;;;9.87;6.47;;;7.70;52.40;;;;;;5081679;28;20693;-68
2022/03/18 10:46:14;;;;;;;12.33;6.73;;;7.70;52.10;;;;;;5075545;28;20360;-69
2022/03/18 10:49:04;;;;;;;15.13;7.17;;;7.70;51.90;;;;;;5084031;28;20644;-69
2022/03/18 10:51:53;;;;;;;9.90;6.70;;;7.70;52.20;;;;;;5068418;28;20329;-68
2022/03/18 10:54:43;;;;;;;12.70;7.23;;;7.50;52.20;;;;;;5064392;28;20232;-72
2022/03/18 10:57:32;;;;;;;11.93;7.30;;;7.40;52.40;;;;;;5059717;28;20231;-69
2022/03/18 11:00:21;;;;;;;15.10;8.80;;;7.40;52.80;;;;;;5058667;28;20438;-70
2022/03/18 11:03:11;;;;;;;11.63;7.47;;;7.60;53.00;;;;;;5056732;28;20231;-71
2022/03/18 11:06:03;;;;;;;14.07;8.30;;;7.50;53.00;;;;;;5074781;28;20228;-71
2022/03/18 11:08:56;;;;;;;14.73;7.87;;;7.30;53.60;;;;;;5059536;28;20728;-70
2022/03/18 11:11:46;;;;;;;11.30;7.50;;;7.20;52.90;;;;;;5061309;28;20213;-69
2022/03/18 11:14:36;;;;;;;11.33;6.80;;;7.10;52.90;;;;;;5055167;28;20591;-70
2022/03/18 11:17:25;;;;;;;11.70;7.57;;;7.40;52.70;;;;;;5042577;28;20693;-72
2022/03/18 11:20:16;;;;;;;10.53;6.97;;;7.60;52.30;;;;;;5041922;28;20228;-71
2022/03/18 11:23:04;;;;;;;13.33;7.70;;;7.70;53.00;;;;;;5055677;28;20650;-71
2022/03/18 11:25:55;;;;;;;13.57;7.77;;;7.70;52.50;;;;;;5058471;28;20718;-70
2022/03/18 11:29:06;;;;;;;14.13;7.10;;;7.80;52.40;;;;;;5055692;28;20224;-70
2022/03/18 11:32:21;;;;;;;10.90;7.37;;;7.60;52.20;;;;;;5058690;28;20227;-70
2022/03/18 11:35:10;;;;;;;14.30;7.43;;;7.60;52.50;;;;;;5060161;28;20224;-71
2022/03/18 11:38:05;;;;;;;12.83;7.47;;;7.60;52.50;;;;;;5058418;28;20228;-71
2022/03/18 11:40:57;;;;;;;14.53;7.83;;;7.60;52.10;;;;;;5057490;28;20213;-70
2022/03/18 11:43:52;;;;;;;11.47;7.57;;;7.60;52.40;;;;;;5024253;28;20228;-69
2022/03/18 11:46:41;;;;;;;14.23;7.87;;;7.50;53.00;;;;;;5022161;28;20228;-71
2022/03/18 11:49:32;;;;;;;16.30;7.50;;;7.60;53.20;;;;;;5041829;28;20704;-70
2022/03/18 11:52:21;;;;;;;15.40;7.27;;;7.70;53.00;;;;;;5043312;28;20225;-71
2022/03/18 11:55:12;;;;;;;10.67;6.97;;;7.70;52.70;;;;;;5039354;28;20232;-71
2022/03/18 11:58:01;;;;;;;13.63;7.53;;;7.90;52.40;;;;;;5038221;28;20227;-70
2022/03/18 12:00:51;;;;;;;10.33;7.03;;;7.90;52.30;;;;;;5038480;28;20304;-70
2022/03/18 12:03:42;;;;;;;11.03;6.67;;;7.80;52.30;;;;;;5042146;28;20217;-70
2022/03/18 12:06:31;;;;;;;11.40;6.67;;;7.80;52.10;;;;;;5021141;28;20239;-70
2022/03/18 12:09:48;;;;;;;12.37;7.10;;;7.80;51.60;;;;;;5040897;28;20225;-70
2022/03/18 12:12:40;;;;;;;10.40;7.00;;;7.60;51.70;;;;;;5037789;28;20225;-70
2022/03/18 12:15:29;;;;;;;12.93;7.17;;;7.70;51.80;;;;;;5032356;28;20311;-70
2022/03/18 12:18:30;;;;;;;12.53;7.00;;;7.70;51.70;;;;;;5040743;28;20220;-68
2022/03/18 12:21:37;;;;;;;12.03;7.00;;;7.70;51.90;;;;;;5043636;28;20248;-71
2022/03/18 12:24:29;;;;;;;12.67;7.77;;;7.90;52.10;;;;;;5042314;28;20244;-70
2022/03/18 12:27:22;;;;;;;12.53;7.37;;;7.90;52.10;;;;;;5038947;28;20224;-68
2022/03/18 12:30:13;;;;;;;10.17;7.07;;;7.90;52.00;;;;;;5050079;28;20232;-69
2022/03/18 12:33:04;;;;;;;11.30;7.03;;;7.80;51.80;;;;;;5042014;28;20243;-69
2022/03/18 12:35:58;;;;;;;15.93;7.83;;;7.70;52.10;;;;;;5034445;28;20220;-69
2022/03/18 12:39:04;;;;;;;16.57;7.37;;;7.60;52.20;;;;;;5044704;28;20228;-69
2022/03/18 12:42:04;;;;;;;16.53;7.50;;;7.60;52.40;;;;;;5047141;28;20234;-69
2022/03/18 12:44:59;;;;;;;15.13;7.00;;;7.70;52.00;;;;;;5080658;28;20215;-69
2022/03/18 12:47:50;;;;;;;10.13;5.87;;;7.70;51.50;;;;;;5061924;28;20212;-69
2022/03/18 12:50:44;;;;;;;10.20;7.13;;;7.80;50.90;;;;;;5062836;28;20232;-69
2022/03/18 12:53:35;;;;;;;15.10;6.90;;;7.70;50.50;;;;;;5059471;28;20232;-69
2022/03/18 12:56:32;;;;;;;10.17;6.87;;;7.80;50.40;;;;;;5064503;28;20236;-69
2022/03/18 12:59:21;;;;;;;12.53;6.77;;;7.90;50.30;;;;;;5057185;28;20955;-68
2022/03/18 13:02:12;;;;;;;13.73;6.87;;;7.90;50.20;;;;;;5084539;28;20212;-68
2022/03/18 13:05:05;;;;;;;13.70;7.30;;;7.90;50.30;;;;;;5067491;28;20357;-69
2022/03/18 13:07:57;;;;;;;10.67;6.30;;;8.00;50.30;;;;;;5086008;28;20231;-69
2022/03/18 13:10:56;;;;;;;12.97;6.83;;;8.00;50.00;;;;;;5085161;28;20208;-69
2022/03/18 13:13:47;;;;;;;12.63;7.27;;;7.90;50.30;;;;;;5078004;28;20217;-70
2022/03/18 13:16:40;;;;;;;11.30;7.53;;;7.80;50.70;;;;;;5079365;28;20223;-68
2022/03/18 13:19:40;;;;;;;10.20;6.47;;;7.80;50.90;;;;;;5075136;28;20228;-69
2022/03/18 13:22:29;;;;;;;13.97;7.27;;;7.80;51.40;;;;;;5044818;28;20224;-69
2022/03/18 13:25:18;;;;;;;11.20;7.30;;;7.80;51.70;;;;;;5077120;28;20227;-70
2022/03/18 13:28:09;;;;;;;13.93;7.43;;;7.70;51.90;;;;;;5065286;28;20234;-70
2022/03/18 13:34:05;;;;;;;11.43;7.67;;;7.80;52.00;;;;;;5063370;28;20273;-70
2022/03/18 13:36:53;;;;;;;12.63;6.70;;;7.90;51.70;;;;;;5079389;28;20238;-70
2022/03/18 13:39:45;;;;;;;10.70;7.07;;;8.00;51.00;;;;;;5064032;28;20760;-69
2022/03/18 13:42:33;;;;;;;13.93;6.83;;;8.00;50.80;;;;;;5079964;28;20324;-70
2022/03/18 13:45:37;;;;;;;9.97;6.30;;;8.10;50.10;;;;;;5083133;28;20227;-71
2022/03/18 13:48:27;;;;;;;10.57;6.90;;;8.00;49.80;;;;;;5065421;28;20230;-69
2022/03/18 13:51:41;;;;;;;11.13;6.73;;;7.90;50.30;;;;;;5068135;28;20219;-70
2022/03/18 13:54:41;;;;;;;11.43;7.07;;;7.80;50.00;;;;;;5067072;28;20223;-70
2022/03/18 13:57:44;;;;;;;12.23;6.80;;;7.80;50.30;;;;;;5064253;28;20244;-70
2022/03/18 14:00:39;;;;;;;12.60;7.00;;;7.80;50.10;;;;;;5082079;28;20224;-69
2022/03/18 14:03:32;;;;;;;10.80;6.90;;;7.80;49.90;;;;;;5075317;28;20665;-70
2022/03/18 14:06:20;;;;;;;12.87;7.40;;;7.80;50.10;;;;;;5063472;28;20230;-70
2022/03/18 14:09:13;;;;;;;13.27;7.57;;;7.80;50.20;;;;;;5064786;28;20285;-70
2022/03/18 14:12:12;;;;;;;12.17;7.20;;;7.90;50.70;;;;;;5056569;28;20235;-70
2022/03/18 14:15:14;;;;;;;13.03;7.60;;;7.80;50.90;;;;;;5078530;28;20219;-70
2022/03/18 14:18:04;;;;;;;11.67;7.17;;;7.90;51.10;;;;;;5069955;28;20255;-70
2022/03/18 14:21:00;;;;;;;10.83;7.17;;;7.80;50.90;;;;;;5053258;28;20579;-70
2022/03/18 14:23:49;;;;;;;12.67;7.43;;;7.90;51.10;;;;;;5083503;28;20272;-70
2022/03/18 14:26:38;;;;;;;11.73;6.87;;;7.90;50.80;;;;;;5082008;28;20230;-70
2022/03/18 14:29:31;;;;;;;9.93;6.93;;;8.00;50.70;;;;;;5062241;28;20275;-69
2022/03/18 14:32:21;;;;;;;14.23;7.60;;;8.00;50.20;;;;;;5081770;28;20220;-69
2022/03/18 14:35:24;;;;;;;15.57;7.17;;;8.00;50.10;;;;;;5080788;28;20711;-69
2022/03/18 14:38:17;;;;;;;12.53;7.47;;;8.00;49.80;;;;;;5078800;28;20224;-69
2022/03/18 14:41:09;;;;;;;12.23;7.77;;;8.00;50.30;;;;;;5062300;28;20229;-70
2022/03/18 14:43:59;;;;;;;11.23;7.57;;;8.00;50.30;;;;;;5058944;28;20221;-70
2022/03/18 14:46:47;;;;;;;13.33;7.60;;;7.90;50.40;;;;;;5041635;28;20232;-69
2022/03/18 14:49:36;;;;;;;13.90;7.60;;;7.80;50.50;;;;;;5061438;28;20235;-70
2022/03/18 14:52:25;;;;;;;14.17;7.33;;;7.90;50.50;;;;;;5056588;28;20228;-69
2022/03/18 14:58:22;;;;;;;9.83;6.90;;;7.90;50.30;;;;;;5065753;28;20376;-69
2022/03/18 15:01:11;;;;;;;13.27;7.00;;;7.80;50.20;;;;;;5082478;28;20640;-69
2022/03/18 15:04:05;;;;;;;11.47;7.30;;;7.80;50.30;;;;;;5080369;28;20235;-70
2022/03/18 15:06:54;;;;;;;9.57;7.07;;;7.80;50.40;;;;;;5063123;28;20231;-70